Time;durP1;ratioP1;P1;durP2;ratioP2;P2;SDS_P1;SDS_P2;PMS_P1;PMS_P2;Temp;Humidity;BMP_temperature;BMP_pressure;BME280_temperature;BME280_humidity;BME280_pressure;Samples;Min_cycle;Max_cycle;Signal;HPM_P1;HPM_P2
2024/01/04 00:00:54;;;;;;;;;;;;;;;6.23;100.00;94256.25;10564608;28;4977;-66
2024/01/04 00:05:56;;;;;;;;;;;;;;;6.34;100.00;94251.56;10562960;28;1913;-65
2024/01/04 00:11:00;;;;;;;;;;;;;;;6.40;100.00;94241.63;10555127;28;1462;-67
2024/01/04 00:16:02;;;;;;;;;;;;;;;6.61;100.00;94240.31;10565203;28;1615;-67
2024/01/04 00:21:05;;;;;;;;;;;;;;;6.78;100.00;94237.16;10557581;28;2049;-68
2024/01/04 00:26:08;;;;;;;;;;;;;;;6.91;100.00;94231.13;10549294;28;2072;-66
2024/01/04 00:31:11;;;;;;;;;;;;;;;6.96;100.00;94227.59;10553358;28;2091;-66
2024/01/04 00:36:14;;;;;;;;;;;;;;;6.90;100.00;94223.41;10555332;28;2061;-69
2024/01/04 00:41:17;;;;;;;;;;;;;;;6.78;100.00;94227.28;10558673;28;1951;-66
2024/01/04 00:46:19;;;;;;;;;;;;;;;6.86;100.00;94227.72;10559994;28;1915;-68
2024/01/04 00:51:22;;;;;;;;;;;;;;;6.90;100.00;94242.09;10556806;28;1969;-73
2024/01/04 00:56:24;;;;;;;;;;;;;;;7.00;100.00;94242.75;10550027;28;2011;-69
2024/01/04 01:01:26;;;;;;;;;;;;;;;7.09;100.00;94268.81;10553032;28;5169;-64
2024/01/04 01:06:29;;;;;;;;;;;;;;;7.12;100.00;94269.03;10555495;28;1976;-68
2024/01/04 01:11:31;;;;;;;;;;;;;;;6.94;100.00;94259.94;10557648;28;1928;-66
2024/01/04 01:16:34;;;;;;;;;;;;;;;6.82;100.00;94269.44;10551199;28;2093;-66
2024/01/04 01:21:36;;;;;;;;;;;;;;;6.71;100.00;94263.44;10560769;28;2061;-67
2024/01/04 01:26:39;;;;;;;;;;;;;;;6.70;100.00;94261.84;10550680;28;2021;-65
2024/01/04 01:31:41;;;;;;;;;;;;;;;6.64;100.00;94279.00;10559665;28;1924;-66
2024/01/04 01:42:27;;;;;;;;;;;;;;;6.71;100.00;94263.44;10553344;27;2089;-66
2024/01/04 01:47:30;;;;;;;;;;;;;;;6.80;100.00;94260.91;10559345;28;2057;-66
2024/01/04 01:52:32;;;;;;;;;;;;;;;6.79;100.00;94265.47;10548947;27;2124;-66
2024/01/04 01:57:35;;;;;;;;;;;;;;;6.93;100.00;94284.25;10551059;27;2226;-64
2024/01/04 02:02:37;;;;;;;;;;;;;;;6.85;100.00;94280.34;10549239;28;6232;-65
2024/01/04 02:07:39;;;;;;;;;;;;;;;6.77;100.00;94286.31;10551874;27;2072;-67
2024/01/04 02:12:42;;;;;;;;;;;;;;;6.75;100.00;94265.25;10551329;28;2134;-66
2024/01/04 02:17:44;;;;;;;;;;;;;;;6.81;100.00;94268.66;10561811;27;2077;-65
2024/01/04 02:22:48;;;;;;;;;;;;;;;6.89;100.00;94289.38;10543182;27;1947;-65
2024/01/04 02:27:50;;;;;;;;;;;;;;;6.87;100.00;94272.03;10548100;27;2037;-65
2024/01/04 02:32:53;;;;;;;;;;;;;;;6.84;100.00;94278.75;10552970;27;2072;-66
2024/01/04 02:37:56;;;;;;;;;;;;;;;6.84;100.00;94283.31;10546149;28;2038;-65
2024/01/04 02:42:58;;;;;;;;;;;;;;;6.87;100.00;94272.84;10545330;27;2218;-66
2024/01/04 02:48:00;;;;;;;;;;;;;;;6.95;100.00;94290.91;10555534;28;1987;-67
2024/01/04 02:53:03;;;;;;;;;;;;;;;6.94;100.00;94273.28;10554400;27;1952;-64
2024/01/04 02:58:05;;;;;;;;;;;;;;;7.04;100.00;94286.50;10553296;28;1954;-65
2024/01/04 03:03:08;;;;;;;;;;;;;;;7.03;100.00;94268.09;10555649;28;4985;-70
2024/01/04 03:08:10;;;;;;;;;;;;;;;7.00;100.00;94282.84;10544520;27;1974;-67
2024/01/04 03:13:13;;;;;;;;;;;;;;;6.86;100.00;94287.28;10552071;28;2076;-65
2024/01/04 03:18:15;;;;;;;;;;;;;;;6.81;100.00;94276.66;10530736;28;1871;-65
2024/01/04 03:23:18;;;;;;;;;;;;;;;6.81;100.00;94284.69;10552208;28;2013;-65
2024/01/04 03:28:20;;;;;;;;;;;;;;;6.77;100.00;94272.97;10558313;28;2110;-65
2024/01/04 03:33:22;;;;;;;;;;;;;;;6.78;100.00;94298.59;10550553;28;2135;-66
2024/01/04 03:38:25;;;;;;;;;;;;;;;6.87;100.00;94283.53;10546426;28;2420;-65
2024/01/04 03:43:27;;;;;;;;;;;;;;;6.87;100.00;94286.22;10552135;28;1984;-65
2024/01/04 03:48:30;;;;;;;;;;;;;;;6.93;100.00;94293.06;10547144;28;1918;-69
2024/01/04 03:53:32;;;;;;;;;;;;;;;6.99;100.00;94297.25;10547953;27;2002;-65
2024/01/04 03:58:35;;;;;;;;;;;;;;;7.03;100.00;94305.50;10550615;28;2061;-65
2024/01/04 04:03:38;;;;;;;;;;;;;;;7.03;100.00;94308.97;10549589;28;5064;-65
2024/01/04 04:08:40;;;;;;;;;;;;;;;7.04;100.00;94313.22;10552609;28;2104;-66
2024/01/04 04:13:43;;;;;;;;;;;;;;;7.00;100.00;94314.91;10547054;28;1953;-66
2024/01/04 04:18:45;;;;;;;;;;;;;;;7.04;100.00;94309.75;10557208;28;1895;-65
2024/01/04 04:23:50;;;;;;;;;;;;;;;6.95;100.00;94317.63;10547641;28;2067;-66
2024/01/04 04:28:53;;;;;;;;;;;;;;;6.87;100.00;94320.94;10549464;28;2283;-63
2024/01/04 04:33:55;;;;;;;;;;;;;;;6.86;100.00;94323.88;10544549;28;2452;-64
2024/01/04 04:39:00;;;;;;;;;;;;;;;6.84;100.00;94328.72;10549628;28;2073;-66
2024/01/04 04:44:03;;;;;;;;;;;;;;;6.77;100.00;94305.81;10556141;27;2029;-65
2024/01/04 04:49:07;;;;;;;;;;;;;;;6.90;100.00;94323.03;10560651;27;2088;-65
2024/01/04 04:54:10;;;;;;;;;;;;;;;7.01;100.00;94316.47;10565815;27;2108;-67
2024/01/04 04:59:12;;;;;;;;;;;;;;;7.04;100.00;94325.78;10557920;27;4916;-65
2024/01/04 05:04:15;;;;;;;;;;;;;;;6.95;100.00;94333.66;10560976;28;2173;-69
2024/01/04 05:09:17;;;;;;;;;;;;;;;6.96;100.00;94345.94;10556587;27;1910;-66
2024/01/04 05:14:20;;;;;;;;;;;;;;;6.94;100.00;94360.66;10557140;27;1984;-65
2024/01/04 05:19:23;;;;;;;;;;;;;;;6.74;100.00;94381.16;10560202;28;2192;-65
2024/01/04 05:24:25;;;;;;;;;;;;;;;6.71;100.00;94392.41;10559693;28;1965;-64
2024/01/04 05:29:27;;;;;;;;;;;;;;;6.62;100.00;94387.97;10553226;27;1946;-65
2024/01/04 05:34:32;;;;;;;;;;;;;;;6.49;100.00;94384.88;10559695;27;2032;-65
2024/01/04 05:39:34;;;;;;;;;;;;;;;6.50;100.00;94391.03;10547778;27;2039;-65
2024/01/04 05:44:37;;;;;;;;;;;;;;;6.48;100.00;94409.16;10556253;28;1983;-65
2024/01/04 05:49:39;;;;;;;;;;;;;;;6.56;100.00;94421.94;10556275;27;2158;-66
2024/01/04 05:54:42;;;;;;;;;;;;;;;6.49;100.00;94435.59;10556666;28;2271;-64
2024/01/04 05:59:44;;;;;;;;;;;;;;;6.53;100.00;94437.69;10552799;28;2045;-65
2024/01/04 06:04:46;;;;;;;;;;;;;;;6.55;100.00;94446.22;10555321;28;2069;-65
2024/01/04 06:09:49;;;;;;;;;;;;;;;6.60;100.00;94470.22;10550630;28;2338;-66
2024/01/04 06:14:51;;;;;;;;;;;;;;;6.61;100.00;94450.44;10552842;28;2060;-65
2024/01/04 06:19:54;;;;;;;;;;;;;;;6.57;100.00;94468.91;10553812;27;2258;-65
2024/01/04 06:24:57;;;;;;;;;;;;;;;6.53;100.00;94488.44;10550892;28;2408;-66
2024/01/04 06:29:59;;;;;;;;;;;;;;;6.47;100.00;94493.81;10550040;27;2028;-66
2024/01/04 06:35:02;;;;;;;;;;;;;;;6.41;100.00;94505.59;10554637;28;2021;-66
2024/01/04 06:40:05;;;;;;;;;;;;;;;6.38;100.00;94513.38;10544249;27;2065;-65
2024/01/04 06:45:08;;;;;;;;;;;;;;;6.34;100.00;94523.78;10547362;28;1914;-65
2024/01/04 06:50:10;;;;;;;;;;;;;;;6.30;100.00;94522.78;10553883;28;2064;-65
2024/01/04 06:55:20;;;;;;;;;;;;;;;6.33;100.00;94529.41;10550136;27;1921;-68
2024/01/04 07:00:24;;;;;;;;;;;;;;;6.39;100.00;94538.97;10548848;28;5033;-72
2024/01/04 07:05:26;;;;;;;;;;;;;;;6.55;100.00;94555.69;10559124;27;2408;-71
2024/01/04 07:10:28;;;;;;;;;;;;;;;6.66;100.00;94549.19;10550342;28;2076;-65
2024/01/04 07:15:31;;;;;;;;;;;;;;;6.76;100.00;94570.50;10554568;28;2249;-65
2024/01/04 07:20:34;;;;;;;;;;;;;;;6.80;100.00;94571.53;10555275;28;2120;-65
2024/01/04 07:25:36;;;;;;;;;;;;;;;6.81;100.00;94591.84;10551326;28;2189;-65
2024/01/04 07:30:38;;;;;;;;;;;;;;;6.89;100.00;94543.16;10547027;28;1985;-66
2024/01/04 07:35:41;;;;;;;;;;;;;;;6.90;100.00;94576.81;10556072;28;1997;-65
2024/01/04 07:40:44;;;;;;;;;;;;;;;6.88;100.00;94572.81;10554133;28;1946;-65
2024/01/04 07:45:47;;;;;;;;;;;;;;;6.98;100.00;94575.41;10551290;28;2098;-66
2024/01/04 07:50:50;;;;;;;;;;;;;;;6.95;100.00;94576.75;10552238;28;2181;-65
2024/01/04 07:55:52;;;;;;;;;;;;;;;7.05;100.00;94582.00;10550742;28;1985;-71
2024/01/04 08:00:55;;;;;;;;;;;;;;;6.99;100.00;94601.81;10554879;28;5191;-73
2024/01/04 08:05:59;;;;;;;;;;;;;;;7.01;100.00;94607.72;10557780;28;1868;-65
2024/01/04 08:11:02;;;;;;;;;;;;;;;7.08;100.00;94612.72;10555637;28;1971;-67
2024/01/04 08:16:04;;;;;;;;;;;;;;;7.11;100.00;94625.53;10555336;28;1962;-67
2024/01/04 08:21:07;;;;;;;;;;;;;;;7.27;100.00;94620.88;10563572;27;2069;-67
2024/01/04 08:26:10;;;;;;;;;;;;;;;7.23;100.00;94623.28;10563752;27;1867;-67
2024/01/04 08:31:13;;;;;;;;;;;;;;;7.38;100.00;94635.75;10558818;28;2176;-67
2024/01/04 08:36:15;;;;;;;;;;;;;;;7.44;100.00;94636.47;10560463;28;2051;-66
2024/01/04 08:41:18;;;;;;;;;;;;;;;7.58;100.00;94630.19;10558305;28;1969;-66
2024/01/04 08:46:20;;;;;;;;;;;;;;;7.60;100.00;94659.34;10559824;27;1899;-66
2024/01/04 08:51:23;;;;;;;;;;;;;;;7.36;100.00;94677.97;10550812;28;2064;-66
2024/01/04 08:56:25;;;;;;;;;;;;;;;7.53;100.00;94681.06;10564986;28;1874;-64
2024/01/04 09:01:28;;;;;;;;;;;;;;;7.53;100.00;94678.38;10553682;28;6203;-66
2024/01/04 09:06:32;;;;;;;;;;;;;;;7.61;100.00;94668.94;10547131;28;2152;-65
2024/01/04 09:11:40;;;;;;;;;;;;;;;7.56;100.00;94659.09;10559248;28;1938;-65
2024/01/04 09:16:43;;;;;;;;;;;;;;;7.69;100.00;94662.97;10556248;28;2438;-65
2024/01/04 09:21:46;;;;;;;;;;;;;;;7.83;100.00;94665.81;10560197;28;2057;-66
2024/01/04 09:26:48;;;;;;;;;;;;;;;7.74;100.00;94678.97;10547044;27;2072;-71
2024/01/04 09:31:51;;;;;;;;;;;;;;;7.91;100.00;94689.28;10552896;28;2025;-67
2024/01/04 09:36:54;;;;;;;;;;;;;;;8.12;100.00;94690.66;10558283;28;2092;-65
2024/01/04 09:41:56;;;;;;;;;;;;;;;8.25;100.00;94691.84;10556240;28;2076;-66
2024/01/04 09:46:59;;;;;;;;;;;;;;;8.27;100.00;94687.03;10551055;28;1976;-66
2024/01/04 09:52:01;;;;;;;;;;;;;;;8.30;100.00;94697.16;10566158;27;2024;-67
2024/01/04 09:57:04;;;;;;;;;;;;;;;8.28;100.00;94712.72;10551440;28;1931;-67
2024/01/04 10:02:06;;;;;;;;;;;;;;;8.28;100.00;94706.56;10553374;27;5072;-66
2024/01/04 10:07:08;;;;;;;;;;;;;;;8.46;100.00;94724.59;10553420;27;2030;-64
2024/01/04 10:12:11;;;;;;;;;;;;;;;8.58;100.00;94726.84;10560050;27;1983;-65
2024/01/04 10:17:15;;;;;;;;;;;;;;;8.63;100.00;94716.88;10551766;27;1935;-66
2024/01/04 10:22:17;;;;;;;;;;;;;;;8.70;100.00;94708.47;10545668;28;1898;-64
2024/01/04 10:27:20;;;;;;;;;;;;;;;8.66;100.00;94710.94;10555033;27;2759;-66
2024/01/04 10:32:23;;;;;;;;;;;;;;;8.55;100.00;94725.53;10549188;27;2045;-69
2024/01/04 10:37:26;;;;;;;;;;;;;;;8.66;100.00;94716.31;10552356;28;1974;-64
2024/01/04 10:42:28;;;;;;;;;;;;;;;8.92;100.00;94738.22;10550785;28;1942;-65
2024/01/04 10:47:30;;;;;;;;;;;;;;;8.89;100.00;94737.97;10561659;28;1926;-66
2024/01/04 10:52:33;;;;;;;;;;;;;;;8.84;100.00;94730.00;10552293;28;2014;-65
2024/01/04 10:57:37;;;;;;;;;;;;;;;8.82;100.00;94742.91;10555866;27;2408;-65
2024/01/04 11:02:40;;;;;;;;;;;;;;;8.71;100.00;94736.06;10571825;27;5021;-65
2024/01/04 11:07:43;;;;;;;;;;;;;;;8.73;100.00;94717.84;10563480;28;1962;-66
2024/01/04 11:12:45;;;;;;;;;;;;;;;9.02;100.00;94742.63;10559816;27;1975;-66
2024/01/04 11:17:47;;;;;;;;;;;;;;;8.87;100.00;94742.84;10547314;28;2068;-65
2024/01/04 11:22:50;;;;;;;;;;;;;;;8.92;100.00;94722.13;10552523;28;1989;-67
2024/01/04 11:27:52;;;;;;;;;;;;;;;8.87;100.00;94721.41;10547532;28;2008;-66
2024/01/04 11:32:55;;;;;;;;;;;;;;;8.99;100.00;94735.19;10553566;28;1996;-66
2024/01/04 11:37:57;;;;;;;;;;;;;;;8.93;100.00;94728.28;10550579;28;1950;-65
2024/01/04 11:43:05;;;;;;;;;;;;;;;8.84;100.00;94712.06;10552839;28;1891;-65
2024/01/04 11:48:08;;;;;;;;;;;;;;;9.06;100.00;94732.16;10555911;28;2006;-66
2024/01/04 11:53:10;;;;;;;;;;;;;;;9.07;100.00;94734.53;10550027;28;1940;-66
2024/01/04 11:58:13;;;;;;;;;;;;;;;9.05;100.00;94734.03;10547101;28;1945;-66
2024/01/04 12:03:15;;;;;;;;;;;;;;;8.79;100.00;94733.56;10558506;28;2207;-66
2024/01/04 12:08:18;;;;;;;;;;;;;;;8.36;100.00;94743.44;10553892;28;2131;-67
2024/01/04 12:13:20;;;;;;;;;;;;;;;8.25;100.00;94749.94;10558843;28;1940;-66
2024/01/04 12:18:22;;;;;;;;;;;;;;;8.47;100.00;94741.47;10551224;28;2045;-66
2024/01/04 12:23:29;;;;;;;;;;;;;;;8.61;100.00;94745.84;10545193;28;2089;-65
2024/01/04 12:28:31;;;;;;;;;;;;;;;8.59;100.00;94731.94;10548948;28;1950;-66
2024/01/04 12:33:33;;;;;;;;;;;;;;;8.34;100.00;94733.00;10548121;28;2058;-67
2024/01/04 12:38:36;;;;;;;;;;;;;;;8.56;100.00;94751.25;10553275;28;1864;-66
2024/01/04 12:43:38;;;;;;;;;;;;;;;8.68;100.00;94739.34;10556990;28;2671;-67
2024/01/04 12:48:41;;;;;;;;;;;;;;;8.76;100.00;94728.75;10553666;28;1989;-68
2024/01/04 12:53:45;;;;;;;;;;;;;;;8.86;100.00;94743.94;10549618;28;1997;-68
2024/01/04 12:58:51;;;;;;;;;;;;;;;8.55;100.00;94730.09;10543751;28;1919;-67
2024/01/04 13:03:54;;;;;;;;;;;;;;;8.53;100.00;94740.31;10550803;28;5937;-68
2024/01/04 13:08:56;;;;;;;;;;;;;;;8.44;100.00;94753.53;10553796;27;2069;-71
2024/01/04 13:14:00;;;;;;;;;;;;;;;8.86;100.00;94743.94;10561087;28;1883;-73
2024/01/04 13:19:03;;;;;;;;;;;;;;;8.68;100.00;94731.28;10563541;28;1939;-77
2024/01/04 13:24:06;;;;;;;;;;;;;;;8.76;100.00;94744.03;10564231;27;1864;-76
2024/01/04 13:29:11;;;;;;;;;;;;;;;8.90;100.00;94750.28;10555450;28;1924;-66
2024/01/04 13:34:13;;;;;;;;;;;;;;;8.58;100.00;94735.66;10556388;28;1992;-65
2024/01/04 13:39:16;;;;;;;;;;;;;;;8.37;100.00;94748.50;10557911;28;1985;-65
2024/01/04 13:44:18;;;;;;;;;;;;;;;7.94;100.00;94755.59;10559293;28;1876;-67
2024/01/04 13:49:21;;;;;;;;;;;;;;;7.86;100.00;94764.22;10559055;28;3249;-68
2024/01/04 13:54:23;;;;;;;;;;;;;;;7.77;100.00;94765.91;10551656;27;2069;-66
2024/01/04 13:59:29;;;;;;;;;;;;;;;7.75;100.00;94765.38;10556306;28;5176;-66
2024/01/04 14:04:32;;;;;;;;;;;;;;;7.64;100.00;94785.28;10558515;28;1945;-66
2024/01/04 14:09:34;;;;;;;;;;;;;;;7.38;100.00;94784.63;10555082;28;1910;-66
2024/01/04 14:14:36;;;;;;;;;;;;;;;7.31;100.00;94777.72;10558253;27;2036;-66
2024/01/04 14:19:39;;;;;;;;;;;;;;;7.36;100.00;94782.25;10563996;27;1942;-66
2024/01/04 14:24:42;;;;;;;;;;;;;;;7.40;100.00;94794.00;10552517;28;2092;-67
2024/01/04 14:29:46;;;;;;;;;;;;;;;7.59;100.00;94802.97;10559284;27;1995;-66
2024/01/04 14:34:48;;;;;;;;;;;;;;;7.67;100.00;94814.13;10556577;28;2784;-65
2024/01/04 14:39:51;;;;;;;;;;;;;;;7.70;100.00;94819.75;10559462;27;1874;-67
2024/01/04 14:44:53;;;;;;;;;;;;;;;7.93;100.00;94825.44;10552364;27;2034;-65
2024/01/04 14:49:55;;;;;;;;;;;;;;;7.94;100.00;94824.38;10546497;28;2017;-65
2024/01/04 14:54:58;;;;;;;;;;;;;;;7.95;100.00;94829.47;10546828;28;1924;-65
2024/01/04 15:00:00;;;;;;;;;;;;;;;7.82;100.00;94838.91;10553419;28;5160;-66
2024/01/04 15:05:03;;;;;;;;;;;;;;;7.61;100.00;94850.00;10554368;27;2098;-65
2024/01/04 15:10:06;;;;;;;;;;;;;;;7.35;100.00;94850.16;10548235;28;1964;-68
2024/01/04 15:15:10;;;;;;;;;;;;;;;7.17;100.00;94854.25;10550244;27;2855;-65
2024/01/04 15:20:21;;;;;;;;;;;;;;;7.05;100.00;94853.75;10556309;27;2112;-68
2024/01/04 15:25:26;;;;;;;;;;;;;;;7.05;100.00;94857.22;10553834;27;2346;-64
2024/01/04 15:30:29;;;;;;;;;;;;;;;7.06;100.00;94866.06;10549164;27;2132;-65
2024/01/04 15:35:31;;;;;;;;;;;;;;;7.12;100.00;94875.66;10560596;28;2058;-72
2024/01/04 15:40:34;;;;;;;;;;;;;;;6.96;100.00;94866.09;10556086;27;1955;-68
2024/01/04 15:45:36;;;;;;;;;;;;;;;6.79;100.00;94853.06;10542746;28;2049;-66
2024/01/04 15:50:38;;;;;;;;;;;;;;;6.71;100.00;94853.63;10544128;28;2010;-68
2024/01/04 15:55:41;;;;;;;;;;;;;;;6.63;100.00;94854.97;10549538;28;2130;-66
2024/01/04 16:00:43;;;;;;;;;;;;;;;6.58;100.00;94863.00;10555621;28;2048;-66
2024/01/04 16:05:46;;;;;;;;;;;;;;;6.47;100.00;94862.22;10554149;28;2224;-66
2024/01/04 16:10:48;;;;;;;;;;;;;;;6.41;100.00;94873.97;10552111;28;2138;-63
2024/01/04 16:15:50;;;;;;;;;;;;;;;6.28;100.00;94882.53;10545836;28;1984;-65
2024/01/04 16:20:53;;;;;;;;;;;;;;;6.26;100.00;94882.00;10546919;28;1936;-65
2024/01/04 16:25:55;;;;;;;;;;;;;;;6.23;100.00;94882.50;10549719;28;2149;-64
2024/01/04 16:30:58;;;;;;;;;;;;;;;6.19;100.00;94881.47;10546058;28;2061;-65
2024/01/04 16:36:00;;;;;;;;;;;;;;;6.12;100.00;94884.41;10556037;28;2114;-65
2024/01/04 16:41:03;;;;;;;;;;;;;;;6.09;100.00;94889.47;10560840;28;2045;-66
2024/01/04 16:46:06;;;;;;;;;;;;;;;6.01;100.00;94896.13;10554254;28;1998;-65
2024/01/04 16:51:08;;;;;;;;;;;;;;;5.84;100.00;94896.34;10556562;28;2030;-68
2024/01/04 16:56:14;;;;;;;;;;;;;;;5.65;100.00;94895.25;10559146;28;2415;-70
2024/01/04 17:01:17;;;;;;;;;;;;;;;5.60;100.00;94895.25;10555794;28;5094;-72
2024/01/04 17:06:19;;;;;;;;;;;;;;;5.62;100.00;94901.13;10565281;28;2089;-66
2024/01/04 17:11:23;;;;;;;;;;;;;;;5.55;100.00;94900.56;10553678;28;1915;-70
2024/01/04 17:16:25;;;;;;;;;;;;;;;5.50;100.00;94898.69;10562751;28;2002;-72
2024/01/04 17:21:28;;;;;;;;;;;;;;;5.44;100.00;94902.41;10556114;28;1910;-71
2024/01/04 17:26:30;;;;;;;;;;;;;;;5.35;100.00;94915.44;10574133;28;2011;-70
2024/01/04 17:31:33;;;;;;;;;;;;;;;5.38;100.00;94916.78;10564657;28;1989;-68
2024/01/04 17:36:36;;;;;;;;;;;;;;;5.38;100.00;94920.25;10562465;27;2004;-69
2024/01/04 17:41:45;;;;;;;;;;;;;;;5.34;100.00;94934.34;10555132;28;1898;-70
2024/01/04 17:46:50;;;;;;;;;;;;;;;5.32;100.00;94939.94;10558367;28;1875;-70
2024/01/04 17:51:53;;;;;;;;;;;;;;;5.30;100.00;94920.75;10554647;28;1972;-71
2024/01/04 17:56:56;;;;;;;;;;;;;;;5.30;100.00;94923.41;10550455;28;2126;-68
2024/01/04 18:01:58;;;;;;;;;;;;;;;5.28;100.00;94914.88;10548438;28;5090;-70
2024/01/04 18:07:01;;;;;;;;;;;;;;;5.34;100.00;94913.03;10562473;28;2021;-70
2024/01/04 18:12:03;;;;;;;;;;;;;;;5.17;100.00;94913.25;10556123;27;2077;-70
2024/01/04 18:17:06;;;;;;;;;;;;;;;5.13;100.00;94906.81;10538710;28;2077;-72
2024/01/04 18:22:09;;;;;;;;;;;;;;;5.04;100.00;94903.88;10558848;28;1959;-67
2024/01/04 18:27:12;;;;;;;;;;;;;;;5.01;100.00;94908.91;10563895;28;2080;-68
2024/01/04 18:32:14;;;;;;;;;;;;;;;4.88;100.00;94904.84;10559723;28;1910;-67
2024/01/04 18:37:17;;;;;;;;;;;;;;;4.73;100.00;94918.88;10556939;28;1945;-67
2024/01/04 18:42:20;;;;;;;;;;;;;;;4.83;100.00;94929.56;10553746;28;2496;-67
2024/01/04 18:47:23;;;;;;;;;;;;;;;4.67;100.00;94930.56;10557898;28;2667;-67
2024/01/04 18:52:25;;;;;;;;;;;;;;;4.52;100.00;94930.47;10563308;28;2240;-67
2024/01/04 18:57:28;;;;;;;;;;;;;;;4.56;100.00;94931.53;10552176;28;2029;-68
2024/01/04 19:02:30;;;;;;;;;;;;;;;4.57;100.00;94925.94;10554222;28;2105;-68
2024/01/04 19:07:33;;;;;;;;;;;;;;;4.42;100.00;94933.03;10565316;28;2033;-70
2024/01/04 19:12:36;;;;;;;;;;;;;;;4.27;100.00;94937.19;10559165;28;2022;-68
2024/01/04 19:17:40;;;;;;;;;;;;;;;4.34;100.00;94937.78;10554825;28;1931;-66
2024/01/04 19:22:43;;;;;;;;;;;;;;;4.49;100.00;94944.28;10558061;28;1917;-71
2024/01/04 19:27:45;;;;;;;;;;;;;;;4.51;100.00;94939.47;10556567;28;2137;-71
2024/01/04 19:32:48;;;;;;;;;;;;;;;4.50;100.00;94956.50;10562696;28;2016;-71
2024/01/04 19:37:51;;;;;;;;;;;;;;;4.64;100.00;94952.34;10550210;28;1911;-70
2024/01/04 19:42:54;;;;;;;;;;;;;;;4.63;100.00;94961.41;10560399;28;1863;-69
2024/01/04 19:47:57;;;;;;;;;;;;;;;4.73;100.00;94950.81;10566550;27;1506;-69
2024/01/04 19:52:59;;;;;;;;;;;;;;;4.76;100.00;94949.50;10555477;28;2014;-68
2024/01/04 19:58:02;;;;;;;;;;;;;;;4.64;100.00;94952.34;10559936;28;1480;-71
2024/01/04 20:03:04;;;;;;;;;;;;;;;4.62;100.00;94954.47;10558734;28;5101;-69
2024/01/04 20:08:07;;;;;;;;;;;;;;;4.54;100.00;94962.94;10557715;28;1690;-69
2024/01/04 20:13:10;;;;;;;;;;;;;;;4.57;100.00;94957.91;10568465;28;2189;-72
2024/01/04 20:18:14;;;;;;;;;;;;;;;4.52;100.00;94960.53;10576286;27;1595;-68
2024/01/04 20:23:17;;;;;;;;;;;;;;;4.56;100.00;94968.81;10571436;28;1697;-68
2024/01/04 20:28:20;;;;;;;;;;;;;;;4.60;100.00;94964.59;10576590;28;1488;-70
2024/01/04 20:33:22;;;;;;;;;;;;;;;4.59;100.00;94955.81;10574180;28;1917;-70
2024/01/04 20:38:25;;;;;;;;;;;;;;;4.50;100.00;94952.00;10568206;28;1862;-70
2024/01/04 20:43:28;;;;;;;;;;;;;;;4.42;100.00;94946.34;10571858;27;1511;-72
2024/01/04 20:48:30;;;;;;;;;;;;;;;4.34;100.00;94945.78;10566486;28;1666;-68
2024/01/04 20:53:36;;;;;;;;;;;;;;;4.39;100.00;94933.53;10569866;27;1922;-69
2024/01/04 20:58:39;;;;;;;;;;;;;;;4.18;100.00;94933.38;10568837;28;1617;-69
2024/01/04 21:03:41;;;;;;;;;;;;;;;4.13;100.00;94936.00;10574467;27;4908;-69
2024/01/04 21:08:44;;;;;;;;;;;;;;;4.13;100.00;94935.19;10573926;27;1448;-68
2024/01/04 21:13:47;;;;;;;;;;;;;;;4.06;100.00;94935.41;10571187;28;1914;-68
2024/01/04 21:18:49;;;;;;;;;;;;;;;3.96;100.00;94930.03;10566645;28;1498;-69
2024/01/04 21:23:52;;;;;;;;;;;;;;;3.96;100.00;94927.34;10569864;28;1522;-69
2024/01/04 21:28:55;;;;;;;;;;;;;;;3.89;100.00;94930.22;10567969;28;2261;-69
2024/01/04 21:33:57;;;;;;;;;;;;;;;3.97;100.00;94931.63;10570456;28;1910;-69
2024/01/04 21:39:05;;;;;;;;;;;;;;;3.91;100.00;94928.09;10569451;27;1708;-69
2024/01/04 21:44:08;;;;;;;;;;;;;;;3.87;100.00;94923.53;10569803;28;1764;-70
2024/01/04 21:49:10;;;;;;;;;;;;;;;3.84;100.00;94916.09;10574220;27;1495;-69
2024/01/04 21:54:13;;;;;;;;;;;;;;;3.78;100.00;94923.19;10571731;27;1918;-71
2024/01/04 21:59:15;;;;;;;;;;;;;;;3.74;100.00;94925.53;10572748;28;5046;-68
2024/01/04 22:04:18;;;;;;;;;;;;;;;3.74;100.00;94938.03;10569330;28;1522;-70
2024/01/04 22:09:20;;;;;;;;;;;;;;;3.67;100.00;94927.59;10568039;28;1543;-69
2024/01/04 22:14:25;;;;;;;;;;;;;;;3.63;100.00;94926.53;10571602;27;1894;-70
2024/01/04 22:19:27;;;;;;;;;;;;;;;3.68;100.00;94902.63;10570968;28;1448;-68
2024/01/04 22:24:30;;;;;;;;;;;;;;;3.69;100.00;94898.13;10568832;28;1518;-69
2024/01/04 22:29:34;;;;;;;;;;;;;;;3.59;100.00;94908.66;10568211;28;2623;-69
2024/01/04 22:34:37;;;;;;;;;;;;;;;3.57;100.00;94914.25;10565258;28;1910;-68
2024/01/04 22:39:40;;;;;;;;;;;;;;;3.51;100.00;94908.06;10566781;28;1898;-70
2024/01/04 22:44:43;;;;;;;;;;;;;;;3.47;100.00;94900.84;10542709;28;1942;-74
2024/01/04 22:49:45;;;;;;;;;;;;;;;3.37;100.00;94887.44;10564415;28;1887;-71
2024/01/04 22:54:48;;;;;;;;;;;;;;;3.36;100.00;94883.97;10558178;28;1922;-70
2024/01/04 22:59:50;;;;;;;;;;;;;;;3.36;100.00;94875.22;10557091;28;4841;-69
2024/01/04 23:04:53;;;;;;;;;;;;;;;3.39;100.00;94861.44;10557767;28;1979;-68
2024/01/04 23:09:55;;;;;;;;;;;;;;;3.34;100.00;94859.53;10555289;28;1986;-69
2024/01/04 23:14:59;;;;;;;;;;;;;;;3.35;100.00;94855.81;10552436;27;1971;-73
2024/01/04 23:20:03;;;;;;;;;;;;;;;3.25;100.00;94845.09;10559793;28;2028;-68
2024/01/04 23:25:06;;;;;;;;;;;;;;;3.23;100.00;94842.69;10553406;28;2009;-68
2024/01/04 23:30:09;;;;;;;;;;;;;;;3.27;100.00;94842.19;10548925;28;2084;-69
2024/01/04 23:35:13;;;;;;;;;;;;;;;3.25;100.00;94845.91;10530757;28;2138;-70
2024/01/04 23:40:15;;;;;;;;;;;;;;;3.20;100.00;94829.91;10553445;28;1916;-71
2024/01/04 23:45:18;;;;;;;;;;;;;;;3.21;100.00;94831.50;10551380;27;2392;-69
2024/01/04 23:50:20;;;;;;;;;;;;;;;3.30;100.00;94818.56;10556055;28;1933;-68
2024/01/04 23:55:23;;;;;;;;;;;;;;;3.22;100.00;94809.19;10550719;28;2255;-69
